Time;durP1;ratioP1;P1;durP2;ratioP2;P2;SDS_P1;SDS_P2;PMS_P1;PMS_P2;Temp;Humidity;BMP_temperature;BMP_pressure;BME280_temperature;BME280_humidity;BME280_pressure;Samples;Min_cycle;Max_cycle;Signal;HPM_P1;HPM_P2
2021/07/01 00:00:14;;;;;;;;;12.00;11.00;;;;;18.77;60.09;101407.72;4922172;28;45312;-64
2021/07/01 00:02:39;;;;;;;;;12.00;9.50;;;;;18.75;59.70;101400.69;4921984;28;45374;-64
2021/07/01 00:05:07;;;;;;;;;12.50;11.50;;;;;18.78;59.58;101409.50;4921422;28;45484;-64
2021/07/01 00:07:33;;;;;;;;;11.00;8.25;;;;;18.81;59.68;101405.72;4921737;28;45477;-64
2021/07/01 00:09:58;;;;;;;;;10.25;10.25;;;;;18.77;59.70;101402.31;4921790;28;45379;-64
2021/07/01 00:12:24;;;;;;;;;11.00;9.25;;;;;18.81;59.97;101409.31;4921873;28;45473;-64
2021/07/01 00:14:49;;;;;;;;;8.25;8.25;;;;;18.82;59.68;101408.34;4921518;28;45407;-64
2021/07/01 00:17:15;;;;;;;;;11.75;10.75;;;;;18.82;59.74;101408.34;4921821;28;45312;-64
2021/07/01 00:19:40;;;;;;;;;12.75;10.75;;;;;18.81;59.74;101409.31;4921612;28;45800;-64
2021/07/01 00:22:06;;;;;;;;;10.25;10.25;;;;;18.80;59.69;101407.56;4921956;28;45466;-64
2021/07/01 00:24:31;;;;;;;;;10.75;9.00;;;;;18.69;60.27;101394.66;4923976;28;45322;-64
2021/07/01 00:26:56;;;;;;;;;8.50;7.50;;;;;18.76;60.11;101405.09;4921606;28;45386;-64
2021/07/01 00:29:22;;;;;;;;;9.00;9.00;;;;;18.79;59.82;101411.22;4921722;28;45200;-64
2021/07/01 00:31:47;;;;;;;;;8.50;8.00;;;;;18.80;60.00;101410.25;4921810;28;45299;-64
2021/07/01 00:34:13;;;;;;;;;7.00;7.00;;;;;18.80;59.90;101412.97;4921475;28;45619;-64
2021/07/01 00:36:38;;;;;;;;;10.25;8.75;;;;;18.80;59.96;101409.41;4922336;28;45301;-64
2021/07/01 00:39:04;;;;;;;;;9.00;8.50;;;;;18.79;59.86;101405.81;4924568;28;45358;-64
2021/07/01 00:41:30;;;;;;;;;8.50;8.50;;;;;18.79;59.74;101407.66;4924636;28;45327;-64
2021/07/01 00:43:55;;;;;;;;;6.25;6.25;;;;;18.74;59.97;101404.31;4924535;28;45421;-64
2021/07/01 00:46:20;;;;;;;;;10.00;10.00;;;;;18.77;59.63;101409.56;4924825;28;45344;-64
2021/07/01 00:48:46;;;;;;;;;8.75;8.00;;;;;18.74;59.75;101405.19;4924646;28;45374;-64
2021/07/01 00:51:11;;;;;;;;;9.25;8.50;;;;;18.74;59.83;101409.75;4931013;28;45418;-64
2021/07/01 00:53:38;;;;;;;;;9.25;9.00;;;;;18.65;59.87;101400.31;4924268;28;45495;-64
2021/07/01 01:01:01;;;;;;;;;7.75;7.75;;;;;18.68;59.78;101398.31;4914594;28;72039;-64
2021/07/01 01:03:31;;;;;;;;;9.00;7.75;;;;;18.68;60.24;101400.16;4909532;28;46290;-64
2021/07/01 01:05:56;;;;;;;;;8.25;8.25;;;;;18.70;59.96;101400.94;4925149;28;45327;-64
2021/07/01 01:08:22;;;;;;;;;8.75;8.00;;;;;18.70;59.97;101404.50;4915745;28;45734;-64
2021/07/01 01:10:47;;;;;;;;;5.50;5.00;;;;;18.66;60.01;101394.81;4924033;28;45327;-64
2021/07/01 01:13:26;;;;;;;;;8.75;8.75;;;;;18.66;59.92;101402.03;4929604;28;46929;-64
2021/07/01 01:15:57;;;;;;;;;7.00;6.50;;;;;18.65;60.27;101398.47;4924308;28;45559;-64
2021/07/01 01:18:23;;;;;;;;;7.00;7.00;;;;;18.66;59.75;101404.75;4923961;28;45233;-64
2021/07/01 01:20:50;;;;;;;;;9.75;8.75;;;;;18.64;59.95;101403.97;4924178;28;45223;-64
2021/07/01 01:23:16;;;;;;;;;6.75;6.25;;;;;18.64;59.87;101398.56;4927759;28;45480;-64
2021/07/01 01:25:43;;;;;;;;;6.75;6.75;;;;;18.64;60.21;101394.03;4917675;28;45407;-64
2021/07/01 01:28:09;;;;;;;;;11.25;10.25;;;;;18.63;60.07;101408.50;4904737;28;45490;-64
2021/07/01 01:30:38;;;;;;;;;7.00;6.50;;;;;18.64;59.74;101403.97;4918815;28;45313;-64
2021/07/01 01:33:05;;;;;;;;;10.75;10.75;;;;;18.63;59.81;101399.53;4926042;28;46327;-64
2021/07/01 01:35:31;;;;;;;;;6.25;6.25;;;;;18.61;59.64;101401.44;4929319;28;45322;-64
2021/07/01 01:37:56;;;;;;;;;10.00;9.00;;;;;18.55;59.93;101388.28;4924011;28;45769;-64
2021/07/01 01:40:21;;;;;;;;;10.50;9.00;;;;;18.60;59.95;101402.41;4923604;28;45602;-64
2021/07/01 01:42:47;;;;;;;;;8.00;8.00;;;;;18.54;59.93;101392.78;4923520;28;46281;-64
2021/07/01 01:45:12;;;;;;;;;8.25;8.25;;;;;18.59;59.81;101400.66;4923852;28;45381;-64
2021/07/01 01:47:37;;;;;;;;;7.00;7.00;;;;;18.59;60.36;101404.22;4923513;28;45581;-64
2021/07/01 01:50:04;;;;;;;;;7.00;7.00;;;;;18.57;60.10;101403.44;4923268;28;45337;-64
2021/07/01 01:52:30;;;;;;;;;6.75;6.75;;;;;18.55;60.20;101399.94;4923645;28;46489;-64
2021/07/01 01:54:55;;;;;;;;;10.00;7.25;;;;;18.51;60.55;101401.97;4923671;28;45361;-64
2021/07/01 01:57:26;;;;;;;;;8.00;7.00;;;;;18.56;59.95;101400.81;4923318;28;45433;-64
2021/07/01 01:59:52;;;;;;;;;12.00;8.75;;;;;18.56;60.04;101400.81;4923627;28;45255;-64
2021/07/01 02:02:18;;;;;;;;;10.25;8.50;;;;;18.55;60.31;101391.84;4923524;28;45525;-64
2021/07/01 02:04:43;;;;;;;;;8.25;7.75;;;;;18.54;60.44;101395.50;4933779;28;48606;-63
2021/07/01 02:07:08;;;;;;;;;9.25;8.50;;;;;18.50;60.74;101394.78;4924139;28;45458;-64
2021/07/01 02:09:33;;;;;;;;;9.75;8.75;;;;;18.54;60.40;101389.22;4928386;28;47052;-63
2021/07/01 02:11:59;;;;;;;;;10.00;10.00;;;;;18.54;60.22;101389.22;4923012;28;45900;-64
2021/07/01 02:14:24;;;;;;;;;6.50;6.50;;;;;18.55;60.09;101385.56;4923420;28;45327;-64
2021/07/01 02:16:50;;;;;;;;;9.00;8.25;;;;;18.56;60.51;101385.50;4923575;28;45359;-64
2021/07/01 02:19:15;;;;;;;;;10.25;8.25;;;;;18.57;60.25;101386.34;4923287;28;45348;-64
2021/07/01 02:21:40;;;;;;;;;10.75;8.25;;;;;18.55;60.84;101385.56;4923305;28;45309;-64
2021/07/01 02:24:06;;;;;;;;;11.75;11.25;;;;;18.54;60.87;101402.72;4926262;28;45215;-64
2021/07/01 02:26:31;;;;;;;;;11.00;9.25;;;;;18.44;60.97;101380.75;4923016;28;45318;-64
2021/07/01 02:28:56;;;;;;;;;10.75;9.75;;;;;18.46;60.61;101382.41;4923235;28;45228;-64
2021/07/01 02:31:22;;;;;;;;;15.75;13.00;;;;;18.47;60.83;101384.13;4923058;28;45235;-64
2021/07/01 02:33:47;;;;;;;;;10.00;10.00;;;;;18.47;60.75;101391.38;4932089;28;45245;-64
2021/07/01 02:36:12;;;;;;;;;14.50;13.50;;;;;18.47;61.09;101386.84;4923417;28;45426;-64
2021/07/01 02:38:38;;;;;;;;;13.25;13.25;;;;;18.45;61.54;101386.06;4910511;28;45484;-64
2021/07/01 02:41:03;;;;;;;;;15.00;13.75;;;;;18.45;61.19;101387.91;4920351;28;46523;-64
2021/07/01 02:43:28;;;;;;;;;11.00;10.00;;;;;18.44;61.12;101384.34;4922763;28;45398;-64
2021/07/01 02:45:54;;;;;;;;;13.25;11.75;;;;;18.39;61.13;101375.59;4922926;28;45289;-64
2021/07/01 02:48:19;;;;;;;;;14.00;13.25;;;;;18.44;61.63;101383.44;4923051;28;45369;-64
2021/07/01 02:50:45;;;;;;;;;7.75;6.25;;;;;18.44;61.02;101380.75;4922734;28;46341;-64
2021/07/01 02:53:10;;;;;;;;;13.50;12.50;;;;;18.37;61.04;101366.69;4922972;28;45160;-64
2021/07/01 02:55:35;;;;;;;;;12.50;12.50;;;;;18.43;61.28;101379.88;4922801;28;46001;-64
2021/07/01 02:58:02;;;;;;;;;14.00;14.00;;;;;18.44;61.26;101378.94;4922732;28;45550;-64
2021/07/01 03:00:28;;;;;;;;;13.00;11.75;;;;;18.41;61.37;101379.09;4922354;28;46093;-64
2021/07/01 03:02:53;;;;;;;;;13.75;12.00;;;;;18.40;61.32;101379.19;4922685;28;45375;-64
2021/07/01 03:05:18;;;;;;;;;14.50;12.25;;;;;18.42;61.23;101377.25;4934043;28;47508;-64
2021/07/01 03:07:44;;;;;;;;;13.00;12.75;;;;;18.40;61.38;101373.78;4925461;28;45366;-64
2021/07/01 03:10:10;;;;;;;;;9.50;9.50;;;;;18.43;61.44;101371.78;4924987;28;45892;-64
2021/07/01 03:12:35;;;;;;;;;11.75;11.75;;;;;18.44;61.53;101372.63;4922443;28;45443;-64
2021/07/01 03:15:00;;;;;;;;;11.25;11.25;;;;;18.45;61.33;101377.09;4922617;28;45295;-64
2021/07/01 03:17:26;;;;;;;;;12.75;11.50;;;;;18.45;61.56;101374.38;4922629;28;45240;-64
2021/07/01 03:19:51;;;;;;;;;13.50;13.50;;;;;18.42;61.89;101375.41;4922257;28;46169;-64
2021/07/01 03:22:16;;;;;;;;;12.00;12.00;;;;;18.39;61.63;101362.06;4923771;28;45157;-64
2021/07/01 03:24:42;;;;;;;;;12.25;10.25;;;;;18.42;61.37;101369.16;4924890;28;45306;-64
2021/07/01 03:27:07;;;;;;;;;13.75;12.75;;;;;18.38;61.71;101371.16;4922461;28;45208;-64
2021/07/01 03:29:33;;;;;;;;;15.25;15.25;;;;;18.39;61.56;101366.59;4922297;28;45190;-64
2021/07/01 03:31:58;;;;;;;;;11.75;11.50;;;;;18.41;61.27;101373.69;4922431;28;45252;-64
2021/07/01 03:34:24;;;;;;;;;11.75;10.50;;;;;18.41;61.19;101370.09;4932313;28;45222;-64
2021/07/01 03:36:49;;;;;;;;;12.00;12.00;;;;;18.37;61.28;101357.72;4922416;28;45141;-64
2021/07/01 03:39:15;;;;;;;;;12.00;12.00;;;;;18.40;61.23;101368.38;4921860;28;46302;-64
2021/07/01 03:41:40;;;;;;;;;10.75;10.50;;;;;18.38;61.59;101367.59;4921965;28;45403;-64
2021/07/01 03:44:08;;;;;;;;;12.75;11.00;;;;;18.37;61.86;101372.09;4922298;28;45330;-64
2021/07/01 03:46:33;;;;;;;;;14.75;12.50;;;;;18.35;61.47;101370.44;4922180;28;45359;-64
2021/07/01 03:48:59;;;;;;;;;12.00;11.75;;;;;18.30;62.09;101365.28;4921964;28;45501;-64
2021/07/01 03:51:24;;;;;;;;;13.00;12.25;;;;;18.32;62.22;101372.34;4922373;28;45315;-64
2021/07/01 03:53:49;;;;;;;;;12.75;10.25;;;;;18.31;61.97;101369.75;4922045;28;45342;-64
2021/07/01 03:56:15;;;;;;;;;13.25;13.25;;;;;18.32;61.95;101377.75;4921656;28;45306;-64
2021/07/01 03:58:40;;;;;;;;;13.25;13.00;;;;;18.27;61.92;101373.56;4921219;28;45471;-64
2021/07/01 04:01:05;;;;;;;;;11.25;11.25;;;;;18.34;61.71;101385.78;4921971;28;45466;-64
2021/07/01 04:03:31;;;;;;;;;14.00;13.00;;;;;18.30;62.17;101382.38;4909977;28;45634;-64
2021/07/01 04:05:56;;;;;;;;;12.50;12.00;;;;;18.29;61.91;101377.06;4931427;28;45232;-64
2021/07/01 04:08:21;;;;;;;;;14.50;13.75;;;;;18.31;62.30;101381.44;4925933;28;46791;-64
2021/07/01 04:10:47;;;;;;;;;14.00;13.75;;;;;18.28;62.36;101378.88;4921736;28;45168;-64
2021/07/01 04:13:12;;;;;;;;;13.00;13.00;;;;;18.29;62.06;101377.94;4924664;28;45240;-64
2021/07/01 04:15:38;;;;;;;;;15.75;13.75;;;;;18.23;62.26;101372.88;4925283;28;45425;-64
2021/07/01 04:18:12;;;;;;;;;13.75;13.25;;;;;18.26;62.25;101378.09;4924944;28;46092;-64
2021/07/01 04:20:37;;;;;;;;;15.75;14.25;;;;;18.25;62.21;101370.94;4925080;28;45304;-64
2021/07/01 04:23:03;;;;;;;;;18.25;15.50;;;;;18.25;62.29;101375.47;4927831;28;45396;-64
2021/07/01 04:25:28;;;;;;;;;14.00;13.00;;;;;18.24;62.06;101379.13;4924905;28;45306;-64
2021/07/01 04:27:54;;;;;;;;;13.50;13.50;;;;;18.17;62.36;101373.19;4924523;28;45436;-64
2021/07/01 04:30:19;;;;;;;;;16.25;14.25;;;;;18.23;62.55;101382.81;4914131;28;45253;-64
2021/07/01 04:32:44;;;;;;;;;15.75;14.75;;;;;18.20;62.28;101385.66;4923688;28;45226;-64
2021/07/01 04:35:10;;;;;;;;;20.50;17.00;;;;;18.22;62.25;101390.03;4933633;28;45440;-64
2021/07/01 04:37:35;;;;;;;;;21.75;20.00;;;;;18.21;62.36;101390.09;4925027;28;46259;-64
2021/07/01 04:40:06;;;;;;;;;17.75;17.25;;;;;18.14;61.95;101381.44;4924465;28;45347;-64
2021/07/01 04:42:31;;;;;;;;;17.00;15.50;;;;;18.14;62.10;101389.56;4924467;28;45394;-64
2021/07/01 04:44:56;;;;;;;;;17.25;14.00;;;;;18.14;62.30;101389.56;4924592;28;50765;-64
2021/07/01 04:47:21;;;;;;;;;19.50;17.75;;;;;18.13;62.42;101396.81;4924645;28;46058;-64
2021/07/01 04:49:47;;;;;;;;;21.00;19.50;;;;;18.15;62.08;101404.81;4924566;28;45183;-64
2021/07/01 04:52:12;;;;;;;;;18.75;17.50;;;;;18.15;61.84;101400.28;4924766;28;45272;-64
2021/07/01 04:54:38;;;;;;;;;18.75;16.75;;;;;18.14;62.33;101401.25;4924510;28;45144;-64
2021/07/01 04:57:03;;;;;;;;;16.50;15.50;;;;;18.11;62.62;101392.44;4924362;28;45917;-64
2021/07/01 04:59:28;;;;;;;;;17.00;16.25;;;;;18.07;61.92;101394.41;4924826;28;45330;-64
2021/07/01 05:01:55;;;;;;;;;16.00;13.75;;;;;18.12;61.94;101407.69;4924522;28;45410;-64
2021/07/01 05:04:20;;;;;;;;;16.25;14.75;;;;;18.05;62.10;101396.34;4931764;28;45346;-64
2021/07/01 05:06:46;;;;;;;;;16.50;14.25;;;;;18.12;62.14;101408.56;4926800;28;45437;-69
2021/07/01 05:09:11;;;;;;;;;17.50;15.00;;;;;18.03;62.33;101392.84;4928422;28;45436;-68
2021/07/01 05:11:37;;;;;;;;;14.00;12.75;;;;;18.12;61.90;101407.69;4933871;28;45322;-68
2021/07/01 05:14:04;;;;;;;;;15.50;15.50;;;;;18.13;62.36;101401.34;4905314;28;45728;-68
2021/07/01 05:16:30;;;;;;;;;17.25;15.50;;;;;18.14;62.17;101416.56;4904981;28;45379;-69
2021/07/01 05:18:56;;;;;;;;;16.25;14.75;;;;;18.13;62.42;101410.31;4917740;28;46577;-68
2021/07/01 05:21:22;;;;;;;;;14.50;13.50;;;;;18.11;62.46;101406.81;4914449;28;45394;-69
2021/07/01 05:23:47;;;;;;;;;14.75;13.75;;;;;18.09;62.18;101406.03;4933055;28;45433;-68
2021/07/01 05:26:13;;;;;;;;;14.50;14.50;;;;;18.13;62.12;101407.59;4923935;28;45947;-68
2021/07/01 05:28:38;;;;;;;;;15.50;14.75;;;;;18.15;62.22;101403.00;4924879;28;45224;-68
2021/07/01 05:31:03;;;;;;;;;13.50;12.25;;;;;18.13;62.29;101398.63;4924416;28;45259;-68
2021/07/01 05:33:29;;;;;;;;;16.00;16.00;;;;;18.14;62.12;101400.38;4930322;28;45160;-68
2021/07/01 05:35:54;;;;;;;;;15.00;13.00;;;;;18.15;62.41;101407.53;4924059;28;46088;-67
2021/07/01 05:38:20;;;;;;;;;17.75;15.25;;;;;18.21;61.57;101411.72;4923099;28;45212;-68
2021/07/01 05:40:45;;;;;;;;;21.00;17.75;;;;;18.14;62.12;101406.66;4916793;28;45323;-68
2021/07/01 05:43:10;;;;;;;;;19.00;17.50;;;;;18.21;62.44;101420.72;4904534;28;45501;-71
2021/07/01 05:45:36;;;;;;;;;21.75;17.25;;;;;18.20;61.91;101423.50;4904436;28;46536;-70
2021/07/01 05:48:02;;;;;;;;;18.00;14.25;;;;;18.18;61.92;101423.59;4919223;28;45813;-69
2021/07/01 05:50:28;;;;;;;;;17.00;15.50;;;;;18.18;62.18;101423.59;4919237;28;45323;-70
2021/07/01 05:52:58;;;;;;;;;19.00;17.50;;;;;18.17;61.68;101424.53;4904622;28;45304;-70
2021/07/01 05:55:24;;;;;;;;;19.50;18.75;;;;;18.19;62.17;101424.44;4904468;28;46220;-70
2021/07/01 05:57:49;;;;;;;;;19.75;17.75;;;;;18.15;61.78;101421.03;4903997;28;45245;-70
2021/07/01 06:00:17;;;;;;;;;18.75;17.25;;;;;18.12;61.68;101413.94;4904806;28;45194;-70
2021/07/01 06:02:44;;;;;;;;;17.25;16.25;;;;;18.23;61.73;101426.03;4904199;28;45408;-70
2021/07/01 06:05:10;;;;;;;;;20.00;19.00;;;;;18.20;62.44;101420.81;4924126;28;45591;-69
2021/07/01 06:07:36;;;;;;;;;18.00;16.25;;;;;18.21;61.66;101422.53;4913567;28;45441;-70
2021/07/01 06:10:05;;;;;;;;;16.00;16.00;;;;;18.25;61.52;101426.81;4914291;28;45317;-69
2021/07/01 06:12:32;;;;;;;;;18.00;17.00;;;;;18.27;61.68;101431.19;4923043;28;45161;-69
2021/07/01 06:14:59;;;;;;;;;15.75;14.75;;;;;18.26;61.38;101420.44;4923132;28;46360;-70
2021/07/01 06:17:27;;;;;;;;;20.50;16.00;;;;;18.29;61.24;101421.19;4937727;28;45363;-70
2021/07/01 06:19:53;;;;;;;;;13.75;13.75;;;;;18.36;60.90;101431.63;4923247;28;46431;-70
2021/07/01 06:22:21;;;;;;;;;14.25;12.75;;;;;18.38;61.41;101435.16;4938296;28;45420;-70
2021/07/01 06:24:49;;;;;;;;;11.25;10.00;;;;;18.36;60.86;101428.94;4923085;28;45400;-70
2021/07/01 06:27:21;;;;;;;;;11.00;11.00;;;;;18.39;60.71;101435.03;4922694;28;45307;-70
2021/07/01 06:29:47;;;;;;;;;13.00;12.25;;;;;18.41;60.56;101430.44;4923408;28;45346;-62
2021/07/01 06:32:12;;;;;;;;;13.25;12.25;;;;;18.42;60.63;101431.31;4922773;28;45557;-62
2021/07/01 06:34:37;;;;;;;;;12.75;11.50;;;;;18.44;59.99;101435.69;4928916;28;46227;-63
2021/07/01 06:37:04;;;;;;;;;11.00;10.25;;;;;18.44;60.05;101441.09;4922805;28;45438;-62
2021/07/01 06:39:30;;;;;;;;;10.25;9.25;;;;;18.46;60.13;101441.00;4922881;28;45326;-62
2021/07/01 06:41:57;;;;;;;;;12.50;12.00;;;;;18.47;60.23;101437.34;4906682;28;45250;-62
2021/07/01 06:44:26;;;;;;;;;11.00;11.00;;;;;18.44;60.48;101441.09;4903814;28;45229;-62
2021/07/01 06:46:52;;;;;;;;;11.50;11.50;;;;;18.46;59.98;101433.78;4891514;28;45360;-62
2021/07/01 06:49:19;;;;;;;;;11.00;9.75;;;;;18.49;60.14;101436.31;4918242;28;45256;-62
2021/07/01 06:51:46;;;;;;;;;12.00;12.00;;;;;18.47;59.77;101426.53;4921232;28;45512;-62
2021/07/01 06:54:15;;;;;;;;;12.75;12.75;;;;;18.52;59.77;101436.13;4922096;28;45396;-62
2021/07/01 06:56:41;;;;;;;;;13.50;13.50;;;;;18.54;59.82;101433.34;4921244;28;45654;-62
2021/07/01 06:59:11;;;;;;;;;14.75;13.00;;;;;18.48;59.78;101422.88;4922695;28;45327;-62
2021/07/01 07:01:37;;;;;;;;;13.50;11.25;;;;;18.58;59.87;101443.03;4937025;28;46202;-62
2021/07/01 07:04:03;;;;;;;;;15.25;12.75;;;;;18.59;59.84;101439.34;4927169;28;45283;-62
2021/07/01 07:06:28;;;;;;;;;10.25;8.75;;;;;18.61;59.74;101440.19;4930100;28;45625;-63
2021/07/01 07:08:55;;;;;;;;;14.75;12.50;;;;;18.61;59.56;101442.88;4929160;28;45459;-63
2021/07/01 07:11:21;;;;;;;;;10.50;9.75;;;;;18.63;59.06;101448.22;4922116;28;45469;-63
2021/07/01 07:13:47;;;;;;;;;11.25;11.25;;;;;18.66;59.65;101448.91;4915377;28;47212;-63
2021/07/01 07:16:13;;;;;;;;;13.25;12.75;;;;;18.65;59.73;101449.00;4921889;28;45574;-62
2021/07/01 07:18:42;;;;;;;;;15.25;12.00;;;;;18.67;59.70;101453.34;4922043;28;45448;-63
2021/07/01 07:21:16;;;;;;;;;13.00;12.25;;;;;18.71;59.88;101454.06;4922335;28;45339;-63
2021/07/01 07:23:42;;;;;;;;;14.50;14.50;;;;;18.73;59.55;101460.25;4928028;28;46547;-63
2021/07/01 07:26:15;;;;;;;;;10.00;9.75;;;;;18.75;59.29;101460.19;4921789;28;45421;-63
2021/07/01 07:28:43;;;;;;;;;14.75;14.75;;;;;18.77;59.14;101459.13;4922314;28;45443;-63
2021/07/01 07:31:11;;;;;;;;;13.25;13.25;;;;;18.78;58.91;101460.00;4922159;28;45324;-62
2021/07/01 07:33:37;;;;;;;;;18.25;15.50;;;;;18.80;59.10;101456.25;4929513;28;45877;-63
2021/07/01 07:36:03;;;;;;;;;12.25;11.25;;;;;18.82;58.65;101454.31;4925500;28;45374;-63
2021/07/01 07:38:29;;;;;;;;;11.50;9.25;;;;;18.86;58.65;101446.94;4921749;28;45398;-63
2021/07/01 07:40:55;;;;;;;;;13.75;13.75;;;;;18.89;58.42;101454.88;4921055;28;45486;-63
2021/07/01 07:43:22;;;;;;;;;15.00;13.25;;;;;18.94;58.31;101455.50;4920259;28;45483;-63
2021/07/01 07:45:50;;;;;;;;;13.75;12.50;;;;;18.96;58.50;101450.91;4920030;28;45506;-63
2021/07/01 07:48:15;;;;;;;;;20.50;16.00;;;;;19.01;58.10;101458.72;4923938;28;45376;-63
2021/07/01 07:50:42;;;;;;;;;17.75;17.75;;;;;19.03;58.21;101456.84;4924337;28;45575;-63
2021/07/01 07:53:17;;;;;;;;;18.00;18.00;;;;;19.06;58.12;101453.94;4924541;28;46249;-63
2021/07/01 07:55:46;;;;;;;;;17.25;17.25;;;;;19.12;58.01;101456.28;4934550;28;45614;-63
2021/07/01 07:58:13;;;;;;;;;21.25;18.75;;;;;19.16;58.19;101455.19;4916416;28;45589;-63
2021/07/01 08:00:39;;;;;;;;;14.00;14.00;;;;;19.21;58.20;101455.78;4924151;28;45278;-63
2021/07/01 08:03:09;;;;;;;;;16.50;15.00;;;;;19.28;58.03;101458.09;4924255;28;46130;-63
2021/07/01 08:05:34;;;;;;;;;15.50;14.00;;;;;19.33;57.68;101456.91;4936608;28;45439;-63
2021/07/01 08:08:02;;;;;;;;;20.75;17.00;;;;;19.39;57.62;101450.25;4928896;28;45350;-63
2021/07/01 08:10:32;;;;;;;;;16.00;15.25;;;;;19.40;57.36;101452.00;4925491;28;45292;-63
2021/07/01 08:13:07;;;;;;;;;20.50;16.50;;;;;19.51;58.48;101454.97;4923808;28;46950;-63
2021/07/01 08:15:35;;;;;;;;;21.50;17.25;;;;;19.54;57.43;101454.75;4924209;28;45270;-62
2021/07/01 08:18:04;;;;;;;;;13.75;13.00;;;;;19.54;57.33;101443.94;4923827;28;45532;-63
2021/07/01 08:20:31;;;;;;;;;21.00;16.25;;;;;19.52;56.63;101434.16;4923957;28;45455;-63
2021/07/01 08:22:57;;;;;;;;;21.75;16.75;;;;;19.59;56.90;101444.53;4928798;28;46099;-63
2021/07/01 08:25:24;;;;;;;;;17.00;15.75;;;;;19.60;57.17;101442.72;4925385;28;45369;-63
2021/07/01 08:27:51;;;;;;;;;13.50;13.50;;;;;19.60;57.18;101437.28;4923843;28;45376;-63
2021/07/01 08:30:19;;;;;;;;;18.25;15.50;;;;;19.62;56.84;101429.94;4923696;28;45507;-63
2021/07/01 08:32:54;;;;;;;;;18.00;15.75;;;;;19.66;56.77;101434.19;4924289;28;45543;-63
2021/07/01 08:35:22;;;;;;;;;17.00;15.75;;;;;19.73;56.94;101432.00;4932865;28;45474;-63
2021/07/01 08:37:50;;;;;;;;;15.00;15.00;;;;;19.73;56.79;101427.47;4923715;28;45400;-63
2021/07/01 08:43:00;;;;;;;;;20.25;19.75;;;;;19.82;56.40;101430.63;5069487;28;45364;-64
2021/07/01 08:45:41;;;;;;;;;18.50;17.75;;;;;19.88;56.65;101438.38;5052833;28;45420;-63
2021/07/01 08:48:18;;;;;;;;;17.25;16.00;;;;;19.89;56.54;101440.97;5052972;28;45404;-63
2021/07/01 08:50:52;;;;;;;;;18.75;17.50;;;;;19.91;56.09;101433.66;5032317;28;45339;-64
2021/07/01 08:53:42;;;;;;;;;19.00;17.00;;;;;19.96;55.83;101438.78;5032901;28;45565;-63
2021/07/01 08:56:11;;;;;;;;;22.75;21.50;;;;;19.99;56.51;101428.63;5021754;28;45131;-63
2021/07/01 08:58:46;;;;;;;;;19.00;17.75;;;;;20.01;56.33;101431.22;5032617;28;45400;-64
2021/07/01 09:01:12;;;;;;;;;17.50;16.25;;;;;20.04;55.99;101432.91;5032183;28;45583;-64
2021/07/01 09:03:42;;;;;;;;;18.75;15.50;;;;;20.06;56.28;101441.81;5031697;28;45985;-63
2021/07/01 09:06:21;;;;;;;;;18.75;15.00;;;;;20.09;56.16;101436.19;5031322;27;45641;-63
2021/07/01 09:08:49;;;;;;;;;15.50;13.75;;;;;20.11;55.91;101436.97;5032111;28;45352;-64
2021/07/01 09:11:17;;;;;;;;;18.00;17.75;;;;;20.09;55.83;101430.78;5032080;28;45396;-64
2021/07/01 09:13:48;;;;;;;;;16.50;15.25;;;;;20.11;55.86;101434.25;5032316;28;45233;-64
2021/07/01 09:16:15;;;;;;;;;22.25;19.00;;;;;20.12;55.96;101434.16;5032166;28;45661;-64
2021/07/01 09:18:41;;;;;;;;;17.50;16.50;;;;;20.11;56.30;101434.25;5031687;28;45598;-63
2021/07/01 09:21:06;;;;;;;;;15.25;15.25;;;;;20.13;55.83;101430.50;5032009;27;45244;-63
2021/07/01 09:23:32;;;;;;;;;18.00;17.00;;;;;20.12;56.12;101425.16;5026268;28;46261;-64
2021/07/01 09:26:00;;;;;;;;;16.50;15.00;;;;;20.14;55.64;101424.09;5031916;28;45398;-64
2021/07/01 09:28:25;;;;;;;;;16.75;13.50;;;;;20.18;55.48;101427.50;5032196;28;45464;-63
2021/07/01 09:30:54;;;;;;;;;17.25;15.75;;;;;20.22;55.17;101437.19;5072913;27;45397;-63
2021/07/01 09:33:19;;;;;;;;;15.75;15.75;;;;;20.20;55.17;101431.00;5018996;28;46427;-64
2021/07/01 09:35:45;;;;;;;;;16.50;16.50;;;;;20.21;54.73;101421.88;5032351;27;45298;-63
2021/07/01 09:38:11;;;;;;;;;23.25;19.75;;;;;20.22;55.11;101423.63;5032203;28;45924;-63
2021/07/01 09:40:37;;;;;;;;;25.00;18.00;;;;;20.25;55.28;101430.72;5035412;27;45434;-64
2021/07/01 09:43:05;;;;;;;;;18.75;18.75;;;;;20.27;55.40;101426.06;5018687;28;46127;-63
2021/07/01 09:45:32;;;;;;;;;18.00;16.75;;;;;20.26;55.67;101432.44;5031973;28;45393;-63
2021/07/01 09:48:08;;;;;;;;;19.00;16.00;;;;;20.30;55.45;101434.00;5032265;28;45427;-63
2021/07/01 09:50:37;;;;;;;;;19.50;17.50;;;;;20.31;55.77;101443.88;5031508;28;45347;-64
2021/07/01 09:53:03;;;;;;;;;22.00;20.75;;;;;20.31;56.43;101443.88;5025964;28;46360;-63
2021/07/01 09:55:31;;;;;;;;;17.50;17.50;;;;;20.30;56.22;101436.72;5018729;28;45327;-63
2021/07/01 09:58:06;;;;;;;;;18.25;18.25;;;;;20.31;55.78;101439.34;5018752;28;45544;-64
2021/07/01 10:00:32;;;;;;;;;19.00;18.50;;;;;20.29;56.46;101432.25;5018463;28;45316;-63
2021/07/01 10:03:06;;;;;;;;;19.25;18.00;;;;;20.36;56.29;101434.50;5018366;28;46632;-64
2021/07/01 10:05:31;;;;;;;;;18.00;18.00;;;;;20.38;56.59;101430.78;5000427;28;45279;-64
2021/07/01 10:07:56;;;;;;;;;25.25;20.25;;;;;20.40;56.44;101432.47;5018289;28;45493;-62
2021/07/01 10:10:22;;;;;;;;;20.00;19.25;;;;;20.43;56.16;101434.09;5018070;28;45519;-62
2021/07/01 10:12:55;;;;;;;;;20.50;16.75;;;;;20.41;55.83;101438.75;5018048;28;45415;-63
2021/07/01 10:15:26;;;;;;;;;17.25;16.25;;;;;20.46;55.72;101440.19;5018072;28;45464;-64
2021/07/01 10:18:09;;;;;;;;;19.25;17.25;;;;;20.45;55.02;101430.31;5018458;28;45392;-64
2021/07/01 10:20:40;;;;;;;;;18.75;17.25;;;;;20.49;55.97;101428.28;5006735;28;45260;-64
2021/07/01 10:23:19;;;;;;;;;19.25;19.25;;;;;20.52;55.45;101430.81;5012771;28;46501;-64
2021/07/01 10:25:46;;;;;;;;;20.00;18.50;;;;;20.53;56.16;101424.41;5018146;28;45422;-64
2021/07/01 10:28:14;;;;;;;;;24.75;20.50;;;;;20.55;55.23;101430.63;5018129;28;45486;-64
2021/07/01 10:30:42;;;;;;;;;19.00;18.50;;;;;20.56;55.64;101429.63;5018057;28;45235;-64
2021/07/01 10:33:25;;;;;;;;;20.00;19.50;;;;;20.57;55.24;101425.97;5014209;28;46355;-63
2021/07/01 10:35:52;;;;;;;;;19.50;18.50;;;;;20.58;54.87;101434.97;5012878;28;45286;-64
2021/07/01 10:38:18;;;;;;;;;19.75;18.75;;;;;20.57;56.09;101428.66;5018131;28;45529;-64
2021/07/01 10:40:47;;;;;;;;;21.00;20.25;;;;;20.60;55.58;101425.78;5017414;27;45499;-63
2021/07/01 10:43:17;;;;;;;;;17.25;17.00;;;;;20.63;55.03;101432.84;5017651;28;46366;-64
2021/07/01 10:45:51;;;;;;;;;20.50;17.00;;;;;20.64;54.87;101440.91;5000341;28;45240;-63
2021/07/01 10:48:18;;;;;;;;;18.50;14.50;;;;;20.65;55.15;101437.22;5017965;27;45312;-64
2021/07/01 10:50:46;;;;;;;;;17.25;17.25;;;;;20.67;55.37;101429.84;5017856;28;45541;-63
2021/07/01 10:53:29;;;;;;;;;21.00;17.25;;;;;20.70;54.49;101437.81;5017824;28;45319;-64
2021/07/01 10:56:02;;;;;;;;;17.50;17.50;;;;;20.73;54.52;101439.44;5017340;28;45251;-63
2021/07/01 10:58:29;;;;;;;;;20.00;17.50;;;;;20.75;55.24;101431.19;5017945;28;45395;-63
2021/07/01 11:00:56;;;;;;;;;14.75;14.75;;;;;20.75;54.65;101432.09;5017876;28;45503;-63
2021/07/01 11:03:26;;;;;;;;;23.50;20.25;;;;;20.79;54.30;101435.47;5017739;28;46194;-63
2021/07/01 11:05:54;;;;;;;;;23.25;21.00;;;;;20.80;54.37;101431.78;5004107;28;45621;-63
2021/07/01 11:08:24;;;;;;;;;19.25;19.00;;;;;20.79;54.17;101433.63;5017699;28;45259;-63
2021/07/01 11:10:51;;;;;;;;;20.00;19.75;;;;;20.83;53.92;101435.19;5017671;28;45240;-64
2021/07/01 11:13:18;;;;;;;;;19.75;19.25;;;;;20.81;54.31;101433.53;5017533;28;45427;-63
2021/07/01 11:16:02;;;;;;;;;25.50;24.75;;;;;20.85;54.77;101433.22;5017487;28;45530;-64
2021/07/01 11:18:38;;;;;;;;;19.50;18.00;;;;;20.86;53.95;101436.81;5011780;27;45553;-63